Time;durP1;ratioP1;P1;durP2;ratioP2;P2;SDS_P1;SDS_P2;PMS_P1;PMS_P2;Temp;Humidity;BMP_temperature;BMP_pressure;BME280_temperature;BME280_humidity;BME280_pressure;Samples;Min_cycle;Max_cycle;Signal;HPM_P1;HPM_P2
2022/05/31 00:00:39;;;;;;;14.07;6.03;;;8.60;84.30;;;;;;5055672;28;20492;-73
2022/05/31 00:03:07;;;;;;;17.43;8.17;;;8.50;84.90;;;;;;5056007;28;20489;-76
2022/05/31 00:05:35;;;;;;;9.10;4.60;;;8.50;85.20;;;;;;5058304;28;20490;-74
2022/05/31 00:08:02;;;;;;;13.20;7.00;;;8.50;85.10;;;;;;5059324;28;20487;-75
2022/05/31 00:10:29;;;;;;;12.07;6.20;;;8.30;86.20;;;;;;5061717;28;20488;-73
2022/05/31 00:12:56;;;;;;;17.10;6.10;;;8.40;86.60;;;;;;5059689;28;20471;-74
2022/05/31 00:15:23;;;;;;;13.37;4.70;;;8.50;85.90;;;;;;5057107;28;21369;-73
2022/05/31 00:17:50;;;;;;;15.13;5.57;;;11.30;86.80;;;;;;5063432;28;20481;-74
2022/05/31 00:20:17;;;;;;;25.43;11.10;;;8.70;85.00;;;;;;5057367;28;20490;-75
2022/05/31 00:22:46;;;;;;;13.10;4.17;;;8.80;85.00;;;;;;5055890;28;20485;-73
2022/05/31 00:25:14;;;;;;;17.60;9.23;;;8.90;85.10;;;;;;5059242;28;20485;-74
2022/05/31 00:27:42;;;;;;;8.87;5.53;;;9.00;84.60;;;;;;5059275;28;20525;-76
2022/05/31 00:30:11;;;;;;;24.03;10.10;;;9.00;83.70;;;;;;5057717;28;20853;-74
2022/05/31 00:32:41;;;;;;;7.97;5.10;;;9.10;83.30;;;;;;5062548;28;20478;-73
2022/05/31 00:35:11;;;;;;;22.37;8.63;;;9.10;83.30;;;;;;5057311;28;20628;-72
2022/05/31 00:37:38;;;;;;;13.70;4.70;;;11.10;84.80;;;;;;5056925;28;20485;-73
2022/05/31 00:40:08;;;;;;;16.93;8.50;;;9.20;84.60;;;;;;5059386;28;20493;-75
2022/05/31 00:42:53;;;;;;;17.23;6.67;;;9.30;84.80;;;;;;5060623;28;20615;-76
2022/05/31 00:45:20;;;;;;;13.90;7.70;;;;;;;;;;5060359;28;20473;-75
2022/05/31 00:47:48;;;;;;;9.20;5.60;;;9.40;85.00;;;;;;5058710;28;20488;-74
2022/05/31 00:50:22;;;;;;;22.23;7.50;;;9.60;84.10;;;;;;5057781;28;20494;-77
2022/05/31 00:52:54;;;;;;;9.97;5.00;;;9.60;84.30;;;;;;5057383;28;21872;-76
2022/05/31 00:55:26;;;;;;;9.80;5.30;;;9.60;83.80;;;;;;5057113;28;20471;-73
2022/05/31 00:57:57;;;;;;;6.87;4.53;;;9.50;83.50;;;;;;5061022;28;20487;-76
2022/05/31 01:00:24;;;;;;;7.00;4.47;;;9.50;82.80;;;;;;5060176;28;20975;-75
2022/05/31 01:02:51;;;;;;;17.53;5.77;;;9.50;82.70;;;;;;5060815;28;20970;-77
2022/05/31 01:05:20;;;;;;;11.33;6.10;;;9.50;83.30;;;;;;5061209;28;20488;-72
2022/05/31 01:07:46;;;;;;;13.73;5.10;;;9.50;84.10;;;;;;5058913;28;20495;-73
2022/05/31 01:10:15;;;;;;;18.40;6.70;;;9.60;83.90;;;;;;5059636;28;21017;-74
2022/05/31 01:12:46;;;;;;;22.73;5.23;;;9.50;82.80;;;;;;5058534;28;20492;-75
2022/05/31 01:15:14;;;;;;;16.83;8.77;;;9.50;83.60;;;;;;5058540;28;20488;-74
2022/05/31 01:17:42;;;;;;;25.37;6.50;;;;;;;;;;5056813;28;20480;-74
2022/05/31 01:20:12;;;;;;;27.70;11.83;;;9.60;84.50;;;;;;5057576;28;20481;-75
2022/05/31 01:22:42;;;;;;;6.33;4.60;;;9.60;84.70;;;;;;5058238;28;20480;-74
2022/05/31 01:25:25;;;;;;;13.23;6.83;;;9.60;84.90;;;;;;5056729;28;20486;-74
2022/05/31 01:28:01;;;;;;;33.60;5.77;;;9.70;84.90;;;;;;5051972;28;20485;-77
2022/05/31 01:30:31;;;;;;;8.60;5.67;;;9.80;83.70;;;;;;5050783;28;20831;-73
2022/05/31 01:33:04;;;;;;;7.77;4.00;;;9.80;83.60;;;;;;5046150;28;20480;-75
2022/05/31 01:35:34;;;;;;;10.80;5.13;;;11.00;83.60;;;;;;5048111;28;20473;-74
2022/05/31 01:38:06;;;;;;;15.90;7.27;;;9.80;83.20;;;;;;5047540;28;20484;-75
2022/05/31 01:40:39;;;;;;;15.83;5.17;;;9.80;84.30;;;;;;5056942;28;20488;-75
2022/05/31 01:43:06;;;;;;;12.50;7.47;;;9.90;84.50;;;;;;5057657;28;20478;-73
2022/05/31 01:45:38;;;;;;;8.07;5.30;;;9.90;84.40;;;;;;5058322;28;20963;-73
2022/05/31 01:48:07;;;;;;;7.43;5.40;;;9.90;84.20;;;;;;5057312;28;20484;-74
2022/05/31 01:50:36;;;;;;;8.97;6.20;;;9.90;84.20;;;;;;5058365;28;20476;-73
2022/05/31 01:53:04;;;;;;;8.17;4.77;;;10.00;82.50;;;;;;5058173;28;20501;-75
2022/05/31 01:55:34;;;;;;;9.37;3.93;;;9.90;84.00;;;;;;5056351;28;20808;-73
2022/05/31 01:58:03;;;;;;;8.47;5.63;;;9.90;84.50;;;;;;5054453;28;20488;-75
2022/05/31 02:00:30;;;;;;;13.97;5.37;;;10.00;82.40;;;;;;5059182;28;20480;-74
2022/05/31 02:03:00;;;;;;;11.60;6.40;;;10.00;82.70;;;;;;5060189;28;20487;-74
2022/05/31 02:05:27;;;;;;;7.40;5.33;;;10.00;83.00;;;;;;5059215;28;20478;-73
2022/05/31 02:07:58;;;;;;;21.60;5.90;;;9.90;83.50;;;;;;5056544;28;20467;-77
2022/05/31 02:10:26;;;;;;;10.53;5.90;;;9.80;82.70;;;;;;5059124;28;20484;-75
2022/05/31 02:12:54;;;;;;;11.10;4.60;;;9.70;82.50;;;;;;5055535;28;20494;-74
2022/05/31 02:15:22;;;;;;;10.20;5.80;;;9.70;83.20;;;;;;5055601;28;21016;-76
2022/05/31 02:17:48;;;;;;;11.13;5.87;;;9.70;84.00;;;;;;5054587;28;21028;-73
2022/05/31 02:20:16;;;;;;;15.93;8.70;;;;;;;;;;5056137;28;21040;-76
2022/05/31 02:22:42;;;;;;;6.47;4.67;;;9.60;83.70;;;;;;5057141;28;21246;-74
2022/05/31 02:25:11;;;;;;;9.47;5.97;;;9.50;83.00;;;;;;5057505;28;20842;-73
2022/05/31 02:27:38;;;;;;;10.37;5.90;;;9.50;82.70;;;;;;5057649;28;20844;-74
2022/05/31 02:30:06;;;;;;;9.63;6.33;;;9.40;83.20;;;;;;5057196;28;20488;-75
2022/05/31 02:32:33;;;;;;;7.10;5.30;;;9.40;84.30;;;;;;5046371;28;20836;-73
2022/05/31 02:35:01;;;;;;;9.50;5.50;;;9.40;84.80;;;;;;5054189;28;20489;-73
2022/05/31 02:37:28;;;;;;;12.03;5.00;;;9.40;84.60;;;;;;5055245;28;21109;-76
2022/05/31 02:39:55;;;;;;;9.33;6.23;;;9.50;84.10;;;;;;5058409;28;20513;-74
2022/05/31 02:42:23;;;;;;;11.87;6.00;;;9.30;83.10;;;;;;5056377;28;20495;-76
2022/05/31 02:44:51;;;;;;;10.90;5.97;;;;;;;;;;5056044;28;20529;-76
2022/05/31 02:47:19;;;;;;;16.70;7.93;;;;;;;;;;5056366;28;20528;-74
2022/05/31 02:49:47;;;;;;;18.73;5.63;;;9.00;83.10;;;;;;5057640;28;20492;-77
2022/05/31 02:52:15;;;;;;;25.70;9.93;;;9.00;82.90;;;;;;5053109;28;20483;-76
2022/05/31 02:54:42;;;;;;;13.80;6.53;;;9.00;83.90;;;;;;5054146;28;20838;-76
2022/05/31 02:57:09;;;;;;;17.83;7.60;;;;;;;;;;5055813;28;20859;-72
2022/05/31 02:59:38;;;;;;;11.97;5.10;;;9.00;84.50;;;;;;5058514;28;20474;-75
2022/05/31 03:02:05;;;;;;;9.70;4.77;;;;;;;;;;5055025;28;20482;-77
2022/05/31 03:04:31;;;;;;;39.40;5.57;;;8.90;83.60;;;;;;5053001;28;20484;-77
2022/05/31 03:07:01;;;;;;;14.43;5.53;;;8.90;83.70;;;;;;5051246;28;20889;-76
2022/05/31 03:09:29;;;;;;;13.20;5.87;;;;;;;;;;5056097;28;20553;-76
2022/05/31 03:11:59;;;;;;;20.20;4.67;;;8.90;84.30;;;;;;5055981;28;21053;-77
2022/05/31 03:14:31;;;;;;;12.30;5.50;;;8.80;84.30;;;;;;5061883;28;20488;-75
2022/05/31 03:17:05;;;;;;;10.40;5.33;;;8.60;84.20;;;;;;5047533;28;20489;-74
2022/05/31 03:19:36;;;;;;;13.20;6.37;;;8.60;84.60;;;;;;5055462;28;20508;-76
2022/05/31 03:22:07;;;;;;;11.63;5.27;;;8.70;84.80;;;;;;5055934;28;20482;-75
2022/05/31 03:24:38;;;;;;;20.23;5.60;;;8.70;84.10;;;;;;5055650;28;20485;-73
2022/05/31 03:27:07;;;;;;;21.67;8.53;;;8.70;83.80;;;;;;5058670;28;20511;-74
2022/05/31 03:29:36;;;;;;;11.27;5.67;;;8.70;84.90;;;;;;5063412;28;20497;-73
2022/05/31 03:32:06;;;;;;;14.83;7.03;;;9.60;86.50;;;;;;5060318;28;20480;-72
2022/05/31 03:34:33;;;;;;;9.70;4.97;;;8.80;85.40;;;;;;5067529;28;20879;-75
2022/05/31 03:37:00;;;;;;;11.97;4.90;;;8.80;84.60;;;;;;5057756;28;21047;-75
2022/05/31 03:39:26;;;;;;;12.07;5.60;;;8.80;85.10;;;;;;5058898;28;20840;-75
2022/05/31 03:41:53;;;;;;;11.57;4.80;;;8.90;85.30;;;;;;5062024;28;20480;-75
2022/05/31 03:44:20;;;;;;;17.27;6.77;;;8.90;85.30;;;;;;5061310;28;20490;-75
2022/05/31 03:46:47;;;;;;;11.20;5.17;;;9.00;85.00;;;;;;5060355;28;20504;-76
2022/05/31 03:49:16;;;;;;;19.07;7.93;;;;;;;;;;5058742;28;20486;-77
2022/05/31 03:51:43;;;;;;;8.53;4.73;;;8.80;83.30;;;;;;5059941;28;20488;-77
2022/05/31 03:54:09;;;;;;;17.60;7.50;;;8.70;83.40;;;;;;5059131;28;20491;-77
2022/05/31 03:56:37;;;;;;;8.10;4.30;;;8.30;84.40;;;;;;5066866;28;20498;-77
2022/05/31 03:59:04;;;;;;;22.37;7.40;;;8.10;86.70;;;;;;5054570;28;20477;-74
2022/05/31 04:01:31;;;;;;;11.57;5.93;;;8.10;87.50;;;;;;5065414;28;20531;-74
2022/05/31 04:03:58;;;;;;;8.87;4.53;;;8.20;86.80;;;;;;5060269;28;20481;-73
2022/05/31 04:06:26;;;;;;;19.33;5.83;;;8.30;86.50;;;;;;5063955;28;20953;-74
2022/05/31 04:08:53;;;;;;;14.03;6.70;;;8.40;86.80;;;;;;5062407;28;20473;-76
2022/05/31 04:11:21;;;;;;;18.83;6.50;;;8.40;86.60;;;;;;5064471;28;20478;-74
2022/05/31 04:13:48;;;;;;;12.17;5.73;;;8.50;85.90;;;;;;5062016;28;20825;-73
2022/05/31 04:16:17;;;;;;;23.53;7.20;;;8.60;85.60;;;;;;5059919;28;20481;-78
2022/05/31 04:18:46;;;;;;;9.93;5.10;;;8.50;85.40;;;;;;5061341;28;20855;-76
2022/05/31 04:21:16;;;;;;;29.23;8.00;;;8.30;86.20;;;;;;5058978;28;20493;-77
2022/05/31 04:24:02;;;;;;;14.60;6.00;;;8.10;87.40;;;;;;5058911;28;20485;-74
2022/05/31 04:26:32;;;;;;;16.63;4.77;;;8.10;88.50;;;;;;5060340;28;20502;-73
2022/05/31 04:28:59;;;;;;;18.67;6.87;;;8.20;88.50;;;;;;5061656;28;20480;-75
2022/05/31 04:31:26;;;;;;;10.37;4.97;;;8.30;88.20;;;;;;5056572;28;20473;-73
2022/05/31 04:33:53;;;;;;;21.33;6.10;;;8.50;88.30;;;;;;5061520;28;20476;-75
2022/05/31 04:36:22;;;;;;;18.77;6.97;;;8.60;87.70;;;;;;5058268;28;20831;-76
2022/05/31 04:38:50;;;;;;;12.57;6.57;;;8.60;87.90;;;;;;5055794;28;21097;-73
2022/05/31 04:41:23;;;;;;;22.27;6.53;;;8.60;89.10;;;;;;5042891;28;20480;-74
2022/05/31 04:43:52;;;;;;;10.77;5.60;;;8.70;90.00;;;;;;5067939;28;20479;-75
2022/05/31 04:46:21;;;;;;;26.17;8.37;;;9.10;90.10;;;;;;5052049;28;20866;-73
2022/05/31 04:48:48;;;;;;;16.97;7.67;;;9.30;90.20;;;;;;5061328;28;20486;-76
2022/05/31 04:51:16;;;;;;;19.13;8.50;;;9.70;90.30;;;;;;5060941;28;20982;-73
2022/05/31 04:53:43;;;;;;;7.83;4.97;;;10.00;89.10;;;;;;5061469;28;20488;-74
2022/05/31 04:56:18;;;;;;;27.93;11.40;;;10.10;88.00;;;;;;5056858;28;20494;-76
2022/05/31 04:58:45;;;;;;;10.80;5.47;;;10.10;86.20;;;;;;5065464;28;20483;-75
2022/05/31 05:01:13;;;;;;;18.37;8.67;;;10.10;86.10;;;;;;5057333;28;20495;-77
2022/05/31 05:03:41;;;;;;;11.73;6.13;;;10.30;86.70;;;;;;5060882;28;20839;-72
2022/05/31 05:06:10;;;;;;;32.67;11.43;;;10.30;86.70;;;;;;5056955;28;20473;-74
2022/05/31 05:08:37;;;;;;;18.60;6.57;;;10.50;87.50;;;;;;5058111;28;20903;-74
2022/05/31 05:11:07;;;;;;;21.37;9.43;;;10.70;88.10;;;;;;5057591;28;21018;-76
2022/05/31 05:13:35;;;;;;;16.03;6.70;;;10.90;88.30;;;;;;5046710;28;20497;-77
2022/05/31 05:16:02;;;;;;;25.30;9.80;;;11.10;88.10;;;;;;5057209;28;20475;-75
2022/05/31 05:18:30;;;;;;;18.90;8.27;;;11.20;87.70;;;;;;5058448;28;20476;-72
2022/05/31 05:20:57;;;;;;;10.40;6.23;;;11.40;88.40;;;;;;5058648;28;20481;-76
2022/05/31 05:23:24;;;;;;;12.00;7.23;;;11.60;88.70;;;;;;5059043;28;20573;-75
2022/05/31 05:25:53;;;;;;;16.03;9.53;;;11.70;87.20;;;;;;5058146;28;20834;-72
2022/05/31 05:31:06;;;;;;;30.17;11.20;;;12.20;87.70;;;;;;5058489;28;20540;-75
2022/05/31 05:33:33;;;;;;;13.43;7.07;;;12.30;86.10;;;;;;5046169;28;20479;-73
2022/05/31 05:36:00;;;;;;;14.47;7.60;;;12.40;85.50;;;;;;5057265;28;20484;-74
2022/05/31 05:38:27;;;;;;;29.27;7.70;;;12.50;85.30;;;;;;5056363;28;20490;-73
2022/05/31 05:40:53;;;;;;;12.47;6.47;;;12.60;85.00;;;;;;5057056;28;20523;-72
2022/05/31 05:43:20;;;;;;;14.50;7.47;;;12.70;85.20;;;;;;5054896;28;20480;-73
2022/05/31 05:45:47;;;;;;;21.23;8.00;;;;;;;;;;5050381;28;20492;-74
2022/05/31 05:48:16;;;;;;;19.30;9.00;;;12.80;85.40;;;;;;5068097;28;20486;-74
2022/05/31 05:50:42;;;;;;;12.23;6.27;;;12.90;85.40;;;;;;5057324;28;20501;-74
2022/05/31 05:53:11;;;;;;;21.13;10.30;;;12.90;85.80;;;;;;5058059;28;21031;-74
2022/05/31 05:55:39;;;;;;;34.30;9.47;;;13.00;85.20;;;;;;5052220;28;20492;-73
2022/05/31 05:58:08;;;;;;;27.67;9.93;;;13.10;85.70;;;;;;5057711;28;20486;-73
2022/05/31 06:00:39;;;;;;;13.00;7.07;;;13.20;85.30;;;;;;5048057;28;20978;-75
2022/05/31 06:03:09;;;;;;;27.67;9.90;;;;;;;;;;5054867;28;20466;-76
2022/05/31 06:05:39;;;;;;;25.13;8.47;;;13.40;84.40;;;;;;5050878;28;20573;-72
2022/05/31 06:08:07;;;;;;;32.57;9.37;;;;;;;;;;5051574;28;20497;-74
2022/05/31 06:10:38;;;;;;;20.83;8.53;;;13.70;84.40;;;;;;5061684;28;20927;-73
2022/05/31 06:13:09;;;;;;;26.97;10.00;;;13.90;84.90;;;;;;5057021;28;20497;-73
2022/05/31 06:15:41;;;;;;;9.13;6.13;;;14.10;84.00;;;;;;5056163;28;20490;-73
2022/05/31 06:18:13;;;;;;;23.87;12.57;;;14.20;83.60;;;;;;5054923;28;20839;-73
2022/05/31 06:20:45;;;;;;;16.13;6.77;;;14.50;82.70;;;;;;5052405;28;20475;-73
2022/05/31 06:23:11;;;;;;;16.03;9.63;;;14.70;82.20;;;;;;5053220;28;20471;-74
2022/05/31 06:25:38;;;;;;;9.60;6.97;;;;;;;;;;5060375;28;20506;-74
2022/05/31 06:28:06;;;;;;;17.23;8.00;;;15.20;82.40;;;;;;5053901;28;20492;-75
2022/05/31 06:30:33;;;;;;;33.10;9.83;;;15.40;82.20;;;;;;5037353;28;20475;-74
2022/05/31 06:33:00;;;;;;;18.70;7.57;;;15.70;80.90;;;;;;5055459;28;20480;-74
2022/05/31 06:35:27;;;;;;;14.87;6.83;;;15.90;80.50;;;;;;5056928;28;20484;-73
2022/05/31 06:37:55;;;;;;;22.30;6.53;;;16.00;80.70;;;;;;5053114;28;20923;-73
2022/05/31 06:40:22;;;;;;;21.20;7.37;;;16.20;79.90;;;;;;5057613;28;20474;-73
2022/05/31 06:42:49;;;;;;;14.67;7.03;;;16.40;78.60;;;;;;5057270;28;20854;-74
2022/05/31 06:45:16;;;;;;;33.17;11.60;;;;;;;;;;5054452;28;20485;-74
2022/05/31 06:47:42;;;;;;;14.83;7.27;;;16.80;79.10;;;;;;5057617;28;21039;-74
2022/05/31 06:50:10;;;;;;;34.50;10.03;;;17.00;78.00;;;;;;5059765;28;20492;-77
2022/05/31 06:58:07;;;;;;;45.20;9.60;;;17.60;76.80;;;;;;5052496;28;20522;-71
2022/05/31 07:00:34;;;;;;;34.67;7.37;;;;;;;;;;5062838;28;20500;-73
2022/05/31 07:03:01;;;;;;;27.37;7.80;;;;;;;;;;5059216;28;20492;-72
2022/05/31 07:05:29;;;;;;;16.77;6.40;;;18.10;76.10;;;;;;5071062;28;21179;-74
2022/05/31 07:07:56;;;;;;;27.23;7.33;;;18.10;74.80;;;;;;5057600;28;20961;-72
2022/05/31 07:10:24;;;;;;;20.53;6.13;;;18.10;75.60;;;;;;5063220;28;20477;-73
2022/05/31 07:12:51;;;;;;;8.57;4.70;;;18.30;75.50;;;;;;5057465;28;20479;-73
2022/05/31 07:15:18;;;;;;;24.43;8.57;;;18.40;75.60;;;;;;5042746;28;20522;-72
2022/05/31 07:17:46;;;;;;;7.07;4.30;;;18.50;73.60;;;;;;5060991;28;20491;-73
2022/05/31 07:20:13;;;;;;;33.80;11.17;;;18.70;74.60;;;;;;5051180;28;20485;-73
2022/05/31 07:22:41;;;;;;;33.77;10.90;;;19.20;73.90;;;;;;5035441;28;20494;-71
2022/05/31 07:25:09;;;;;;;34.20;12.70;;;19.00;73.70;;;;;;5044021;28;20494;-72
2022/05/31 07:27:39;;;;;;;16.73;7.37;;;19.00;74.70;;;;;;5040593;28;20483;-73
2022/05/31 07:30:07;;;;;;;31.00;9.67;;;19.30;74.60;;;;;;5030276;28;20712;-73
2022/05/31 07:32:34;;;;;;;19.70;8.70;;;;;;;;;;5046706;28;20811;-72
2022/05/31 07:35:01;;;;;;;22.00;9.83;;;;;;;;;;5043776;28;20848;-71
2022/05/31 07:37:29;;;;;;;35.03;8.77;;;;;;;;;;5041703;28;21110;-73
2022/05/31 07:39:56;;;;;;;29.80;9.13;;;;;;;;;;5036629;28;20479;-72
2022/05/31 07:42:23;;;;;;;25.80;8.30;;;20.10;73.20;;;;;;5039855;28;20512;-70
2022/05/31 07:44:55;;;;;;;37.93;7.67;;;20.30;73.10;;;;;;5043022;28;20679;-73
2022/05/31 07:47:22;;;;;;;16.50;8.23;;;;;;;;;;5047847;28;22064;-72
2022/05/31 07:49:49;;;;;;;24.37;9.20;;;20.60;72.30;;;;;;5048401;28;20475;-73
2022/05/31 07:52:18;;;;;;;30.63;11.03;;;20.80;72.60;;;;;;5042460;28;20479;-73
2022/05/31 07:54:45;;;;;;;12.97;6.43;;;;;;;;;;5046741;28;20472;-73
2022/05/31 07:58:30;;;;;;;30.07;11.30;;;21.00;72.80;;;;;;5038102;28;21157;-70
2022/05/31 08:00:01;;;;;;;26.47;9.20;;;21.10;73.00;;;;;;5036813;28;20841;-73
2022/05/31 08:02:28;;;;;;;17.87;9.47;;;21.30;71.40;;;;;;5037845;28;20487;-72
2022/05/31 08:04:54;;;;;;;34.63;6.47;;;21.50;70.60;;;;;;5040435;28;20476;-71
2022/05/31 08:07:21;;;;;;;27.10;8.87;;;;;;;;;;5040898;28;20998;-71
2022/05/31 08:09:48;;;;;;;14.60;5.77;;;21.90;70.10;;;;;;5041101;28;20478;-71
2022/05/31 08:12:15;;;;;;;25.97;7.93;;;22.20;70.00;;;;;;5043769;28;21015;-72
2022/05/31 08:14:42;;;;;;;12.83;6.57;;;22.30;70.20;;;;;;5038496;28;20494;-71
2022/05/31 08:17:11;;;;;;;12.73;6.73;;;22.40;69.70;;;;;;5028218;28;20479;-72
2022/05/31 08:19:38;;;;;;;17.37;6.67;;;22.50;68.50;;;;;;5035699;28;20522;-71
2022/05/31 08:22:05;;;;;;;18.40;7.90;;;;;;;;;;5052729;27;20485;-71
2022/05/31 08:24:32;;;;;;;16.93;7.30;;;22.70;68.40;;;;;;5031910;28;20503;-71
2022/05/31 08:27:00;;;;;;;15.03;5.57;;;22.50;68.20;;;;;;5047660;28;20481;-72
2022/05/31 08:29:28;;;;;;;18.87;7.83;;;;;;;;;;5036256;28;20476;-73
2022/05/31 08:31:58;;;;;;;16.13;6.20;;;22.30;66.80;;;;;;5050645;28;20487;-73
2022/05/31 08:34:27;;;;;;;10.87;6.37;;;22.10;65.90;;;;;;5039026;28;20575;-72
2022/05/31 08:36:54;;;;;;;8.63;5.70;;;22.00;68.60;;;;;;5038983;28;20490;-73
2022/05/31 08:39:21;;;;;;;14.87;9.10;;;21.50;65.80;;;;;;5040347;28;21028;-70
2022/05/31 08:41:51;;;;;;;6.90;5.47;;;21.20;65.10;;;;;;5048425;28;21134;-73
2022/05/31 08:44:34;;;;;;;11.00;7.90;;;21.10;66.60;;;;;;5047717;28;20665;-72
2022/05/31 08:47:02;;;;;;;8.53;5.70;;;21.20;66.90;;;;;;5042094;28;21060;-72
2022/05/31 08:52:54;;;;;;;9.90;7.00;;;22.00;68.30;;;;;;5045489;28;20494;-73
2022/05/31 08:58:11;;;;;;;7.20;5.80;;;22.20;65.80;;;;;;5052407;28;20535;-72
2022/05/31 09:00:42;;;;;;;19.43;6.50;;;22.30;68.40;;;;;;5037557;28;20940;-73
2022/05/31 09:03:15;;;;;;;10.17;7.37;;;22.60;69.10;;;;;;5045602;28;20478;-71
2022/05/31 09:05:49;;;;;;;7.00;5.67;;;23.10;69.40;;;;;;5044621;28;20481;-72
2022/05/31 09:08:21;;;;;;;16.33;10.47;;;23.40;67.90;;;;;;5042030;28;20497;-73
2022/05/31 09:10:50;;;;;;;4.70;4.20;;;;;;;;;;5043550;28;20478;-71
2022/05/31 09:13:23;;;;;;;12.10;8.50;;;24.00;65.80;;;;;;5045155;28;20470;-71
2022/05/31 09:15:54;;;;;;;8.90;6.70;;;24.20;66.40;;;;;;5046698;28;20482;-73
2022/05/31 09:18:25;;;;;;;13.70;5.83;;;24.50;66.60;;;;;;5043645;28;20794;-73
2022/05/31 09:20:56;;;;;;;5.93;5.30;;;24.70;65.50;;;;;;5044451;28;20461;-73
2022/05/31 09:23:25;;;;;;;9.63;5.43;;;;;;;;;;5038770;28;20486;-73
2022/05/31 09:25:59;;;;;;;7.90;4.27;;;24.50;59.30;;;;;;5032533;28;22789;-72
2022/05/31 09:28:34;;;;;;;8.20;7.17;;;24.50;61.20;;;;;;5035169;28;20484;-73
2022/05/31 09:31:09;;;;;;;14.40;5.60;;;24.30;62.00;;;;;;5030753;28;20473;-71
2022/05/31 09:33:46;;;;;;;12.23;7.67;;;24.50;64.10;;;;;;5041114;28;21030;-72
2022/05/31 09:36:22;;;;;;;13.63;6.27;;;24.50;58.20;;;;;;5026463;28;20486;-73
2022/05/31 09:39:04;;;;;;;5.77;5.00;;;24.30;59.40;;;;;;5018497;28;20844;-72
2022/05/31 09:41:37;;;;;;;15.90;6.20;;;24.40;62.10;;;;;;5017561;28;20534;-70
2022/05/31 09:44:12;;;;;;;9.37;6.70;;;24.30;60.20;;;;;;5015857;28;20483;-71
2022/05/31 09:46:44;;;;;;;10.40;5.40;;;24.00;59.50;;;;;;5026972;28;20471;-71
2022/05/31 09:49:27;;;;;;;13.33;9.60;;;24.10;57.80;;;;;;5028035;28;20473;-69
2022/05/31 09:51:55;;;;;;;11.60;6.70;;;23.80;56.60;;;;;;5023924;28;20483;-72
2022/05/31 09:57:15;;;;;;;9.00;6.07;;;24.00;59.00;;;;;;5032027;28;21316;-72
2022/05/31 09:59:47;;;;;;;10.70;7.03;;;24.20;59.00;;;;;;5011713;28;20489;-73
2022/05/31 10:02:31;;;;;;;13.87;7.10;;;;;;;;;;5030351;28;20508;-73
2022/05/31 10:05:22;;;;;;;9.33;6.07;;;24.20;56.80;;;;;;5033852;28;21029;-71
2022/05/31 10:07:55;;;;;;;21.20;6.43;;;24.40;55.80;;;;;;5037587;28;20474;-70
2022/05/31 10:10:28;;;;;;;14.60;6.23;;;24.50;55.50;;;;;;5035330;28;20526;-70
2022/05/31 10:12:57;;;;;;;22.10;7.17;;;24.90;58.00;;;;;;5047477;28;21521;-70
2022/05/31 10:15:50;;;;;;;17.67;6.50;;;25.20;55.20;;;;;;5040944;28;20702;-71
2022/05/31 10:18:27;;;;;;;18.30;7.00;;;24.80;53.00;;;;;;5007379;28;20489;-71
2022/05/31 10:20:56;;;;;;;18.87;8.43;;;24.80;53.20;;;;;;5032126;28;20475;-72
2022/05/31 10:23:31;;;;;;;2.30;1.63;;;24.40;54.60;;;;;;5006348;22;20576;-58
2022/05/31 10:26:00;;;;;;;2.30;2.10;;;24.30;55.70;;;;;;4990855;28;20516;-59
2022/05/31 10:28:30;;;;;;;3.53;2.73;;;24.10;55.20;;;;;;4987520;28;20473;-56
2022/05/31 10:31:07;;;;;;;2.23;1.80;;;24.50;59.40;;;;;;4976979;28;21431;-57
2022/05/31 10:33:35;;;;;;;2.90;2.60;;;24.90;56.20;;;;;;4999236;28;20488;-57
2022/05/31 10:36:08;;;;;;;2.87;2.10;;;25.30;55.70;;;;;;4987131;28;20577;-57
2022/05/31 10:38:41;;;;;;;3.20;2.07;;;25.40;54.10;;;;;;4986885;28;20485;-58
2022/05/31 10:41:10;;;;;;;5.07;2.03;;;25.40;53.50;;;;;;4985855;28;20485;-57
2022/05/31 10:43:41;;;;;;;2.03;1.70;;;25.30;53.00;;;;;;4987575;28;20524;-57
2022/05/31 10:46:15;;;;;;;6.00;1.77;;;25.00;52.90;;;;;;4990857;28;20941;-57
2022/05/31 10:48:47;;;;;;;2.50;2.30;;;24.30;52.50;;;;;;4991129;28;20495;-56
2022/05/31 10:51:42;;;;;;;4.83;2.23;;;24.30;52.60;;;;;;4987772;28;20493;-56
2022/05/31 10:54:29;;;;;;;2.57;1.77;;;24.30;48.70;;;;;;4987010;28;20485;-56
2022/05/31 10:57:06;;;;;;;2.20;1.60;;;24.30;51.70;;;;;;4976172;28;20903;-56
2022/05/31 10:59:41;;;;;;;2.10;1.60;;;24.60;53.90;;;;;;4965775;28;20844;-55
2022/05/31 11:02:46;;;;;;;1.90;1.40;;;25.10;50.50;;;;;;4980596;28;20485;-58
2022/05/31 11:05:15;;;;;;;2.00;1.80;;;25.20;50.10;;;;;;4987016;28;20490;-57
2022/05/31 11:12:42;;;;;;;2.50;2.30;;;25.10;50.30;;;;;;5028578;27;20585;-61
2022/05/31 11:15:26;;;;;;;4.27;3.40;;;24.90;50.80;;;;;;5018514;28;20949;-59
2022/05/31 11:18:14;;;;;;;2.80;1.70;;;24.80;51.80;;;;;;5004370;28;20648;-60
2022/05/31 11:20:48;;;;;;;4.40;1.80;;;24.70;51.90;;;;;;5009165;28;20481;-60
2022/05/31 11:23:31;;;;;;;2.40;1.90;;;24.40;49.40;;;;;;5005801;28;20491;-59
2022/05/31 11:26:09;;;;;;;2.33;1.70;;;24.50;51.60;;;;;;5002346;28;20579;-57
2022/05/31 11:28:50;;;;;;;6.73;2.10;;;24.40;50.10;;;;;;5008707;28;20496;-59
2022/05/31 11:31:30;;;;;;;2.27;1.60;;;24.50;50.60;;;;;;4998064;28;21275;-59
2022/05/31 11:34:23;;;;;;;2.40;1.60;;;24.60;52.50;;;;;;5046335;28;20595;-60
2022/05/31 11:37:06;;;;;;;3.40;1.80;;;24.40;51.10;;;;;;5016266;28;20514;-60
2022/05/31 11:39:48;;;;;;;2.17;1.37;;;24.10;49.60;;;;;;4998434;28;20479;-61
2022/05/31 11:42:28;;;;;;;8.27;1.90;;;24.10;51.30;;;;;;4998981;28;20483;-60
2022/05/31 11:45:07;;;;;;;2.13;1.93;;;24.10;50.70;;;;;;5003705;28;20483;-63
2022/05/31 11:47:53;;;;;;;8.47;2.10;;;24.20;50.70;;;;;;4993317;28;20479;-62
2022/05/31 11:50:27;;;;;;;2.80;1.77;;;24.20;48.80;;;;;;4995835;28;20531;-60
2022/05/31 11:53:10;;;;;;;8.53;2.00;;;24.30;51.20;;;;;;5003883;28;21318;-60
2022/05/31 11:55:42;;;;;;;3.53;2.00;;;24.60;50.70;;;;;;4997644;28;20467;-60
2022/05/31 11:58:18;;;;;;;3.87;2.43;;;25.00;53.80;;;;;;5005487;28;20477;-59
2022/05/31 12:01:01;;;;;;;4.10;2.20;;;24.60;52.10;;;;;;5002859;28;20472;-60
2022/05/31 12:03:39;;;;;;;2.00;1.70;;;25.30;51.10;;;;;;4991767;28;20492;-56
2022/05/31 12:06:11;;;;;;;3.07;2.20;;;;;;;;;;5000337;28;20487;-56
2022/05/31 12:08:45;;;;;;;3.00;1.70;;;24.90;50.90;;;;;;4990379;28;20477;-59
2022/05/31 12:11:17;;;;;;;2.20;1.73;;;24.90;52.10;;;;;;5008684;28;20511;-59
2022/05/31 12:13:46;;;;;;;11.13;2.30;;;24.90;51.40;;;;;;4995066;28;20479;-59
2022/05/31 12:16:15;;;;;;;2.20;1.70;;;24.70;51.00;;;;;;5016307;28;20488;-59
2022/05/31 12:18:52;;;;;;;2.00;1.63;;;24.60;52.00;;;;;;5025384;28;21097;-59
2022/05/31 12:21:27;;;;;;;3.37;2.37;;;24.50;52.20;;;;;;5011449;28;20475;-61
2022/05/31 12:23:59;;;;;;;3.63;2.07;;;24.50;51.90;;;;;;5009532;28;20525;-60
2022/05/31 12:26:33;;;;;;;4.33;1.97;;;24.30;52.30;;;;;;5003806;28;20496;-59
2022/05/31 12:29:08;;;;;;;2.57;1.83;;;24.40;52.90;;;;;;5008847;28;21956;-58
2022/05/31 12:31:40;;;;;;;8.10;2.03;;;24.80;53.60;;;;;;5011097;28;20472;-59
2022/05/31 12:34:31;;;;;;;2.67;1.87;;;25.00;51.50;;;;;;5010127;28;20459;-61
2022/05/31 12:37:01;;;;;;;2.30;1.70;;;25.50;53.50;;;;;;5009866;28;20678;-59
2022/05/31 12:39:32;;;;;;;3.27;1.83;;;25.70;51.90;;;;;;5007731;28;20512;-60
2022/05/31 12:42:20;;;;;;;2.00;1.70;;;25.60;51.30;;;;;;5007752;28;20860;-58
2022/05/31 12:44:48;;;;;;;4.63;2.10;;;25.70;52.30;;;;;;4996553;28;20465;-59
2022/05/31 12:47:19;;;;;;;2.00;1.57;;;25.70;50.50;;;;;;5011670;28;20481;-57
2022/05/31 12:49:52;;;;;;;1.90;1.50;;;26.00;51.30;;;;;;5000651;28;20489;-61
2022/05/31 12:55:11;;;;;;;2.00;1.80;;;26.30;51.20;;;;;;4990343;28;20489;-63
2022/05/31 13:00:43;;;;;;;1.90;1.53;;;26.00;50.80;;;;;;4987793;28;20469;-61
2022/05/31 13:03:43;;;;;;;8.23;2.50;;;26.00;50.60;;;;;;5005607;28;20520;-60
2022/05/31 13:06:15;;;;;;;15.37;3.23;;;25.40;51.70;;;;;;5008123;28;20480;-58
2022/05/31 13:08:55;;;;;;;3.00;2.30;;;25.00;50.80;;;;;;5008010;28;21374;-59
2022/05/31 13:20:05;;;;;;;3.03;1.60;;;24.70;51.60;;;;;;4998566;28;20841;-59
2022/05/31 13:22:37;;;;;;;3.50;2.47;;;24.70;50.50;;;;;;4991023;28;20500;-58
2022/05/31 13:25:07;;;;;;;16.93;3.57;;;24.60;51.60;;;;;;4984090;28;20488;-58
2022/05/31 13:27:38;;;;;;;2.10;1.90;;;24.80;54.50;;;;;;4988357;28;20470;-62
2022/05/31 13:30:12;;;;;;;2.00;1.80;;;25.00;53.70;;;;;;4979915;28;20557;-58
2022/05/31 13:32:40;;;;;;;4.43;2.67;;;25.20;53.20;;;;;;4987408;28;20492;-59
2022/05/31 13:35:12;;;;;;;3.20;2.50;;;25.30;53.10;;;;;;4973147;28;20857;-57
2022/05/31 13:37:59;;;;;;;4.57;2.47;;;25.40;51.90;;;;;;4994473;28;20487;-59
2022/05/31 13:40:32;;;;;;;3.07;2.30;;;25.50;52.70;;;;;;4978537;28;20844;-59
2022/05/31 13:43:01;;;;;;;7.20;2.67;;;25.20;52.60;;;;;;5001715;28;20584;-59
2022/05/31 13:45:30;;;;;;;2.27;1.87;;;25.10;52.00;;;;;;4982914;28;20853;-62
2022/05/31 13:47:59;;;;;;;2.70;2.10;;;25.00;52.40;;;;;;4989048;28;20551;-58